sensor_id;sensor_type;location;lat;lon;timestamp;pressure;altitude;pressure_sealevel;temperature;humidity
69570;BME280;56781;42.292;23.146;2023-07-31T00:00:53;95216.59;;;18.47;100.00
69570;BME280;56781;42.292;23.146;2023-07-31T00:03:20;95197.63;;;18.47;100.00
69570;BME280;56781;42.292;23.146;2023-07-31T00:05:47;95189.13;;;18.29;100.00
69570;BME280;56781;42.292;23.146;2023-07-31T00:08:14;95207.47;;;18.36;100.00
69570;BME280;56781;42.292;23.146;2023-07-31T00:10:42;95197.22;;;18.26;100.00
69570;BME280;56781;42.292;23.146;2023-07-31T00:13:09;95188.59;;;18.20;100.00
69570;BME280;56781;42.292;23.146;2023-07-31T00:15:37;95181.59;;;18.19;100.00
69570;BME280;56781;42.292;23.146;2023-07-31T00:18:04;95170.84;;;18.23;100.00
69570;BME280;56781;42.292;23.146;2023-07-31T00:20:32;95176.25;;;18.23;100.00
69570;BME280;56781;42.292;23.146;2023-07-31T00:22:59;95175.25;;;18.11;100.00
69570;BME280;56781;42.292;23.146;2023-07-31T00:25:26;95190.50;;;18.20;100.00
69570;BME280;56781;42.292;23.146;2023-07-31T00:27:53;95186.16;;;18.15;100.00
69570;BME280;56781;42.292;23.146;2023-07-31T00:30:20;95189.25;;;18.13;100.00
69570;BME280;56781;42.292;23.146;2023-07-31T00:32:49;95163.97;;;17.90;100.00
69570;BME280;56781;42.292;23.146;2023-07-31T00:35:16;95163.63;;;17.91;100.00
69570;BME280;56781;42.292;23.146;2023-07-31T00:37:43;95161.00;;;17.95;100.00
69570;BME280;56781;42.292;23.146;2023-07-31T00:40:11;95164.69;;;18.06;100.00
69570;BME280;56781;42.292;23.146;2023-07-31T00:42:38;95145.47;;;17.92;100.00
69570;BME280;56781;42.292;23.146;2023-07-31T00:45:05;95151.00;;;17.99;100.00
69570;BME280;56781;42.292;23.146;2023-07-31T00:47:33;95156.19;;;17.88;100.00
69570;BME280;56781;42.292;23.146;2023-07-31T00:50:01;95172.69;;;17.99;100.00
69570;BME280;56781;42.292;23.146;2023-07-31T00:52:28;95175.09;;;18.04;100.00
69570;BME280;56781;42.292;23.146;2023-07-31T00:54:55;95178.09;;;17.99;100.00
69570;BME280;56781;42.292;23.146;2023-07-31T00:57:22;95173.31;;;17.92;100.00
69570;BME280;56781;42.292;23.146;2023-07-31T00:59:50;95147.41;;;17.76;100.00
69570;BME280;56781;42.292;23.146;2023-07-31T01:02:17;95155.28;;;17.81;100.00
69570;BME280;56781;42.292;23.146;2023-07-31T01:04:45;95146.97;;;17.89;100.00
69570;BME280;56781;42.292;23.146;2023-07-31T01:07:20;95139.88;;;17.85;100.00
69570;BME280;56781;42.292;23.146;2023-07-31T01:10:04;95143.53;;;17.92;100.00
69570;BME280;56781;42.292;23.146;2023-07-31T01:12:36;95158.78;;;18.01;100.00
69570;BME280;56781;42.292;23.146;2023-07-31T01:15:09;95153.44;;;17.85;100.00
69570;BME280;56781;42.292;23.146;2023-07-31T01:17:41;95160.13;;;17.91;100.00
69570;BME280;56781;42.292;23.146;2023-07-31T01:20:17;95155.59;;;17.95;100.00
69570;BME280;56781;42.292;23.146;2023-07-31T01:23:08;95144.69;;;17.91;100.00
69570;BME280;56781;42.292;23.146;2023-07-31T01:28:28;95159.00;;;18.11;100.00
69570;BME280;56781;42.292;23.146;2023-07-31T01:31:00;95152.50;;;17.97;100.00
69570;BME280;56781;42.292;23.146;2023-07-31T01:33:28;95165.03;;;18.05;100.00
69570;BME280;56781;42.292;23.146;2023-07-31T01:35:56;95148.56;;;17.94;100.00
69570;BME280;56781;42.292;23.146;2023-07-31T01:38:23;95163.78;;;17.99;100.00
69570;BME280;56781;42.292;23.146;2023-07-31T01:40:52;95146.97;;;17.73;100.00
69570;BME280;56781;42.292;23.146;2023-07-31T01:43:20;95150.47;;;17.74;100.00
69570;BME280;56781;42.292;23.146;2023-07-31T01:45:47;95147.31;;;17.72;100.00
69570;BME280;56781;42.292;23.146;2023-07-31T01:48:14;95146.03;;;17.82;100.00
69570;BME280;56781;42.292;23.146;2023-07-31T01:50:41;95170.91;;;17.87;100.00
69570;BME280;56781;42.292;23.146;2023-07-31T01:53:09;95144.63;;;17.72;100.00
69570;BME280;56781;42.292;23.146;2023-07-31T01:55:36;95153.09;;;17.70;100.00
69570;BME280;56781;42.292;23.146;2023-07-31T01:58:03;95143.50;;;17.73;100.00
69570;BME280;56781;42.292;23.146;2023-07-31T02:00:30;95171.09;;;17.79;100.00
69570;BME280;56781;42.292;23.146;2023-07-31T02:02:59;95177.91;;;17.72;100.00
69570;BME280;56781;42.292;23.146;2023-07-31T02:05:27;95177.38;;;17.67;100.00
69570;BME280;56781;42.292;23.146;2023-07-31T02:07:54;95170.59;;;17.57;100.00
69570;BME280;56781;42.292;23.146;2023-07-31T02:10:21;95171.78;;;17.40;100.00
69570;BME280;56781;42.292;23.146;2023-07-31T02:12:48;95208.06;;;17.55;100.00
69570;BME280;56781;42.292;23.146;2023-07-31T02:15:15;95190.97;;;17.51;100.00
69570;BME280;56781;42.292;23.146;2023-07-31T02:17:43;95197.09;;;17.48;100.00
69570;BME280;56781;42.292;23.146;2023-07-31T02:20:10;95213.13;;;17.57;100.00
69570;BME280;56781;42.292;23.146;2023-07-31T02:22:37;95196.97;;;17.44;100.00
69570;BME280;56781;42.292;23.146;2023-07-31T02:25:05;95216.09;;;17.67;100.00
69570;BME280;56781;42.292;23.146;2023-07-31T02:27:32;95230.13;;;17.73;100.00
69570;BME280;56781;42.292;23.146;2023-07-31T02:29:59;95234.94;;;17.80;100.00
69570;BME280;56781;42.292;23.146;2023-07-31T02:32:26;95224.78;;;17.77;100.00
69570;BME280;56781;42.292;23.146;2023-07-31T02:34:53;95216.94;;;17.71;100.00
69570;BME280;56781;42.292;23.146;2023-07-31T02:37:21;95221.84;;;17.82;100.00
69570;BME280;56781;42.292;23.146;2023-07-31T02:39:48;95230.47;;;17.87;100.00
69570;BME280;56781;42.292;23.146;2023-07-31T02:42:15;95233.44;;;17.82;100.00
69570;BME280;56781;42.292;23.146;2023-07-31T02:44:42;95237.53;;;17.92;100.00
69570;BME280;56781;42.292;23.146;2023-07-31T02:47:09;95248.69;;;18.06;100.00
69570;BME280;56781;42.292;23.146;2023-07-31T02:49:37;95239.50;;;18.11;100.00
69570;BME280;56781;42.292;23.146;2023-07-31T02:52:04;95243.59;;;18.05;100.00
69570;BME280;56781;42.292;23.146;2023-07-31T02:54:32;95226.66;;;18.08;100.00
69570;BME280;56781;42.292;23.146;2023-07-31T02:56:59;95210.31;;;18.04;100.00
69570;BME280;56781;42.292;23.146;2023-07-31T02:59:27;95238.84;;;18.37;100.00
69570;BME280;56781;42.292;23.146;2023-07-31T03:01:55;95226.16;;;18.41;100.00
69570;BME280;56781;42.292;23.146;2023-07-31T03:04:25;95224.59;;;18.40;100.00
69570;BME280;56781;42.292;23.146;2023-07-31T03:06:52;95212.41;;;18.30;100.00
69570;BME280;56781;42.292;23.146;2023-07-31T03:09:19;95222.88;;;18.32;100.00
69570;BME280;56781;42.292;23.146;2023-07-31T03:11:46;95212.19;;;18.20;100.00
69570;BME280;56781;42.292;23.146;2023-07-31T03:14:14;95229.59;;;18.38;100.00
69570;BME280;56781;42.292;23.146;2023-07-31T03:16:43;95227.44;;;18.28;100.00
69570;BME280;56781;42.292;23.146;2023-07-31T03:19:11;95198.34;;;18.05;100.00
69570;BME280;56781;42.292;23.146;2023-07-31T03:21:38;95217.88;;;18.14;100.00
69570;BME280;56781;42.292;23.146;2023-07-31T03:24:05;95224.25;;;18.22;100.00
69570;BME280;56781;42.292;23.146;2023-07-31T03:26:32;95233.94;;;18.23;100.00
69570;BME280;56781;42.292;23.146;2023-07-31T03:29:00;95215.53;;;18.13;100.00
69570;BME280;56781;42.292;23.146;2023-07-31T03:31:27;95232.94;;;18.31;100.00
69570;BME280;56781;42.292;23.146;2023-07-31T03:33:54;95221.75;;;18.33;100.00
69570;BME280;56781;42.292;23.146;2023-07-31T03:36:21;95233.03;;;18.35;100.00
69570;BME280;56781;42.292;23.146;2023-07-31T03:38:48;95230.78;;;18.21;100.00
69570;BME280;56781;42.292;23.146;2023-07-31T03:41:16;95221.03;;;18.16;100.00
69570;BME280;56781;42.292;23.146;2023-07-31T03:43:45;95244.72;;;18.20;100.00
69570;BME280;56781;42.292;23.146;2023-07-31T03:46:12;95226.88;;;18.19;100.00
69570;BME280;56781;42.292;23.146;2023-07-31T03:48:39;95238.72;;;18.10;100.00
69570;BME280;56781;42.292;23.146;2023-07-31T03:51:07;95241.22;;;18.19;100.00
69570;BME280;56781;42.292;23.146;2023-07-31T03:53:34;95256.59;;;18.15;100.00
69570;BME280;56781;42.292;23.146;2023-07-31T03:56:01;95265.56;;;18.35;100.00
69570;BME280;56781;42.292;23.146;2023-07-31T03:58:28;95269.97;;;18.43;100.00
69570;BME280;56781;42.292;23.146;2023-07-31T04:00:55;95249.56;;;18.30;100.00
69570;BME280;56781;42.292;23.146;2023-07-31T04:03:23;95265.56;;;18.35;100.00
69570;BME280;56781;42.292;23.146;2023-07-31T04:05:50;95263.19;;;18.33;100.00
69570;BME280;56781;42.292;23.146;2023-07-31T04:08:17;95278.50;;;18.45;100.00
69570;BME280;56781;42.292;23.146;2023-07-31T04:10:44;95260.97;;;18.39;100.00
69570;BME280;56781;42.292;23.146;2023-07-31T04:13:12;95265.97;;;18.37;100.00
69570;BME280;56781;42.292;23.146;2023-07-31T04:15:39;95257.03;;;18.36;100.00
69570;BME280;56781;42.292;23.146;2023-07-31T04:18:06;95270.47;;;18.49;100.00
69570;BME280;56781;42.292;23.146;2023-07-31T04:20:34;95275.97;;;18.52;100.00
69570;BME280;56781;42.292;23.146;2023-07-31T04:23:01;95290.06;;;18.61;100.00
69570;BME280;56781;42.292;23.146;2023-07-31T04:25:28;95271.19;;;18.46;100.00
69570;BME280;56781;42.292;23.146;2023-07-31T04:27:55;95295.09;;;18.59;100.00
69570;BME280;56781;42.292;23.146;2023-07-31T04:30:22;95286.09;;;18.55;100.00
69570;BME280;56781;42.292;23.146;2023-07-31T04:32:50;95272.38;;;18.48;100.00
69570;BME280;56781;42.292;23.146;2023-07-31T04:35:17;95271.38;;;18.56;100.00
69570;BME280;56781;42.292;23.146;2023-07-31T04:37:44;95304.38;;;18.78;100.00
69570;BME280;56781;42.292;23.146;2023-07-31T04:40:16;95278.22;;;18.70;100.00
69570;BME280;56781;42.292;23.146;2023-07-31T04:42:43;95285.81;;;18.80;100.00
69570;BME280;56781;42.292;23.146;2023-07-31T04:45:11;95284.38;;;18.86;100.00
69570;BME280;56781;42.292;23.146;2023-07-31T04:47:38;95299.25;;;18.92;100.00
69570;BME280;56781;42.292;23.146;2023-07-31T04:50:06;95293.00;;;18.92;100.00
69570;BME280;56781;42.292;23.146;2023-07-31T04:52:33;95279.56;;;18.76;100.00
69570;BME280;56781;42.292;23.146;2023-07-31T04:55:00;95294.22;;;18.94;100.00
69570;BME280;56781;42.292;23.146;2023-07-31T04:57:28;95280.53;;;18.87;100.00
69570;BME280;56781;42.292;23.146;2023-07-31T04:59:55;95286.22;;;19.01;100.00
69570;BME280;56781;42.292;23.146;2023-07-31T05:02:22;95280.81;;;19.01;100.00
69570;BME280;56781;42.292;23.146;2023-07-31T05:04:49;95273.81;;;19.00;100.00
69570;BME280;56781;42.292;23.146;2023-07-31T05:07:17;95251.06;;;18.86;100.00
69570;BME280;56781;42.292;23.146;2023-07-31T05:09:44;95267.47;;;18.93;100.00
69570;BME280;56781;42.292;23.146;2023-07-31T05:12:12;95289.47;;;19.11;100.00
69570;BME280;56781;42.292;23.146;2023-07-31T05:14:39;95263.75;;;19.01;100.00
69570;BME280;56781;42.292;23.146;2023-07-31T05:17:06;95274.84;;;19.15;100.00
69570;BME280;56781;42.292;23.146;2023-07-31T05:19:34;95274.38;;;19.33;100.00
69570;BME280;56781;42.292;23.146;2023-07-31T05:22:01;95271.13;;;19.46;100.00
69570;BME280;56781;42.292;23.146;2023-07-31T05:24:32;95257.66;;;19.31;100.00
69570;BME280;56781;42.292;23.146;2023-07-31T05:27:00;95253.75;;;19.28;100.00
69570;BME280;56781;42.292;23.146;2023-07-31T05:29:28;95249.88;;;19.29;100.00
69570;BME280;56781;42.292;23.146;2023-07-31T05:31:55;95286.09;;;19.60;100.00
69570;BME280;56781;42.292;23.146;2023-07-31T05:34:22;95279.84;;;19.82;100.00
69570;BME280;56781;42.292;23.146;2023-07-31T05:36:49;95277.88;;;20.06;100.00
69570;BME280;56781;42.292;23.146;2023-07-31T05:39:16;95269.72;;;20.06;100.00
69570;BME280;56781;42.292;23.146;2023-07-31T05:41:45;95288.16;;;20.20;100.00
69570;BME280;56781;42.292;23.146;2023-07-31T05:44:12;95295.41;;;20.39;100.00
69570;BME280;56781;42.292;23.146;2023-07-31T05:46:39;95292.03;;;20.49;100.00
69570;BME280;56781;42.292;23.146;2023-07-31T05:49:07;95280.78;;;20.50;100.00
69570;BME280;56781;42.292;23.146;2023-07-31T05:51:34;95288.34;;;20.61;100.00
69570;BME280;56781;42.292;23.146;2023-07-31T05:54:01;95291.75;;;20.88;100.00
69570;BME280;56781;42.292;23.146;2023-07-31T05:56:29;95293.34;;;21.30;100.00
69570;BME280;56781;42.292;23.146;2023-07-31T05:58:56;95299.91;;;21.62;100.00
69570;BME280;56781;42.292;23.146;2023-07-31T06:01:24;95286.44;;;21.84;100.00
69570;BME280;56781;42.292;23.146;2023-07-31T06:03:51;95285.16;;;22.19;100.00
69570;BME280;56781;42.292;23.146;2023-07-31T06:06:18;95292.03;;;22.68;100.00
69570;BME280;56781;42.292;23.146;2023-07-31T06:08:45;95303.69;;;22.57;100.00
69570;BME280;56781;42.292;23.146;2023-07-31T06:11:13;95293.19;;;22.01;100.00
69570;BME280;56781;42.292;23.146;2023-07-31T06:13:40;95295.50;;;21.95;100.00
69570;BME280;56781;42.292;23.146;2023-07-31T06:16:09;95267.97;;;21.59;100.00
69570;BME280;56781;42.292;23.146;2023-07-31T06:18:37;95296.03;;;21.63;100.00
69570;BME280;56781;42.292;23.146;2023-07-31T06:21:04;95303.25;;;21.93;100.00
69570;BME280;56781;42.292;23.146;2023-07-31T06:23:31;95287.16;;;21.74;100.00
69570;BME280;56781;42.292;23.146;2023-07-31T06:25:59;95284.31;;;21.59;100.00
69570;BME280;56781;42.292;23.146;2023-07-31T06:28:30;95276.56;;;21.24;100.00
69570;BME280;56781;42.292;23.146;2023-07-31T06:30:58;95291.25;;;21.12;100.00
69570;BME280;56781;42.292;23.146;2023-07-31T06:33:25;95292.34;;;21.04;100.00
69570;BME280;56781;42.292;23.146;2023-07-31T06:35:53;95284.53;;;21.02;100.00
69570;BME280;56781;42.292;23.146;2023-07-31T06:38:24;95294.03;;;21.19;100.00
69570;BME280;56781;42.292;23.146;2023-07-31T06:40:52;95294.41;;;21.55;100.00
69570;BME280;56781;42.292;23.146;2023-07-31T06:43:19;95285.28;;;21.85;100.00
69570;BME280;56781;42.292;23.146;2023-07-31T06:45:46;95267.75;;;22.41;97.18
69570;BME280;56781;42.292;23.146;2023-07-31T06:48:15;95289.06;;;22.98;95.24
69570;BME280;56781;42.292;23.146;2023-07-31T06:50:42;95271.19;;;23.43;93.19
69570;BME280;56781;42.292;23.146;2023-07-31T06:53:09;95259.88;;;23.52;90.93
69570;BME280;56781;42.292;23.146;2023-07-31T06:55:37;95279.75;;;23.24;93.12
69570;BME280;56781;42.292;23.146;2023-07-31T06:58:04;95287.97;;;23.42;97.52
69570;BME280;56781;42.292;23.146;2023-07-31T07:00:31;95291.88;;;23.30;96.78
69570;BME280;56781;42.292;23.146;2023-07-31T07:02:59;95272.78;;;23.62;89.43
69570;BME280;56781;42.292;23.146;2023-07-31T07:05:26;95290.75;;;24.03;89.84
69570;BME280;56781;42.292;23.146;2023-07-31T07:07:54;95277.47;;;23.62;90.63
69570;BME280;56781;42.292;23.146;2023-07-31T07:10:22;95272.75;;;23.27;90.29
69570;BME280;56781;42.292;23.146;2023-07-31T07:12:49;95286.81;;;24.15;86.59
69570;BME280;56781;42.292;23.146;2023-07-31T07:15:17;95289.94;;;24.27;89.17
69570;BME280;56781;42.292;23.146;2023-07-31T07:17:44;95262.59;;;23.45;83.56
69570;BME280;56781;42.292;23.146;2023-07-31T07:20:12;95273.13;;;23.25;89.00
69570;BME280;56781;42.292;23.146;2023-07-31T07:22:39;95274.25;;;23.03;89.67
69570;BME280;56781;42.292;23.146;2023-07-31T07:25:10;95269.47;;;22.85;90.33
69570;BME280;56781;42.292;23.146;2023-07-31T07:27:37;95264.09;;;22.99;89.83
69570;BME280;56781;42.292;23.146;2023-07-31T07:30:05;95271.22;;;24.01;86.41
69570;BME280;56781;42.292;23.146;2023-07-31T07:32:33;95262.47;;;24.63;84.48
69570;BME280;56781;42.292;23.146;2023-07-31T07:35:00;95262.91;;;24.51;80.19
69570;BME280;56781;42.292;23.146;2023-07-31T07:37:27;95273.47;;;24.34;81.48
69570;BME280;56781;42.292;23.146;2023-07-31T07:39:55;95256.13;;;24.81;82.14
69570;BME280;56781;42.292;23.146;2023-07-31T07:42:22;95260.00;;;25.60;77.05
69570;BME280;56781;42.292;23.146;2023-07-31T07:44:50;95253.78;;;26.01;74.26
69570;BME280;56781;42.292;23.146;2023-07-31T07:47:17;95252.41;;;25.79;73.25
69570;BME280;56781;42.292;23.146;2023-07-31T07:49:45;95282.41;;;26.38;73.96
69570;BME280;56781;42.292;23.146;2023-07-31T07:52:18;95256.72;;;26.21;74.63
69570;BME280;56781;42.292;23.146;2023-07-31T07:54:46;95261.19;;;26.80;71.21
69570;BME280;56781;42.292;23.146;2023-07-31T07:57:13;95271.91;;;26.71;69.55
69570;BME280;56781;42.292;23.146;2023-07-31T07:59:40;95263.19;;;26.38;67.07
69570;BME280;56781;42.292;23.146;2023-07-31T08:02:08;95262.50;;;25.93;72.82
69570;BME280;56781;42.292;23.146;2023-07-31T08:04:35;95283.34;;;26.24;72.32
69570;BME280;56781;42.292;23.146;2023-07-31T08:07:02;95284.13;;;26.97;69.69
69570;BME280;56781;42.292;23.146;2023-07-31T08:09:30;95265.72;;;27.25;66.12
69570;BME280;56781;42.292;23.146;2023-07-31T08:11:57;95282.41;;;26.38;72.76
69570;BME280;56781;42.292;23.146;2023-07-31T08:14:28;95259.34;;;26.70;71.28
69570;BME280;56781;42.292;23.146;2023-07-31T08:16:59;95274.78;;;26.91;68.29
69570;BME280;56781;42.292;23.146;2023-07-31T08:19:27;95292.22;;;27.08;67.37
69570;BME280;56781;42.292;23.146;2023-07-31T08:21:54;95270.44;;;27.24;67.38
69570;BME280;56781;42.292;23.146;2023-07-31T08:24:24;95283.09;;;26.87;67.47
69570;BME280;56781;42.292;23.146;2023-07-31T08:26:51;95275.03;;;27.34;66.36
69570;BME280;56781;42.292;23.146;2023-07-31T08:29:18;95273.78;;;27.08;63.76
69570;BME280;56781;42.292;23.146;2023-07-31T08:31:45;95263.09;;;27.45;67.70
69570;BME280;56781;42.292;23.146;2023-07-31T08:34:13;95264.94;;;27.24;62.10
69570;BME280;56781;42.292;23.146;2023-07-31T08:36:40;95268.69;;;26.76;67.77
69570;BME280;56781;42.292;23.146;2023-07-31T08:39:07;95278.56;;;26.36;67.18
69570;BME280;56781;42.292;23.146;2023-07-31T08:41:38;95258.25;;;26.94;68.21
69570;BME280;56781;42.292;23.146;2023-07-31T08:44:10;95253.66;;;26.84;64.85
69570;BME280;56781;42.292;23.146;2023-07-31T08:46:38;95256.66;;;26.28;66.07
69570;BME280;56781;42.292;23.146;2023-07-31T08:49:05;95263.38;;;26.24;69.18
69570;BME280;56781;42.292;23.146;2023-07-31T08:51:34;95255.34;;;26.02;65.25
69570;BME280;56781;42.292;23.146;2023-07-31T08:54:02;95254.94;;;26.04;68.95
69570;BME280;56781;42.292;23.146;2023-07-31T08:56:33;95262.31;;;26.14;67.14
69570;BME280;56781;42.292;23.146;2023-07-31T08:59:02;95252.91;;;26.12;67.26
69570;BME280;56781;42.292;23.146;2023-07-31T09:01:36;95265.72;;;26.63;67.56
69570;BME280;56781;42.292;23.146;2023-07-31T09:04:09;95245.78;;;27.17;65.36
69570;BME280;56781;42.292;23.146;2023-07-31T09:06:38;95245.75;;;27.48;63.05
69570;BME280;56781;42.292;23.146;2023-07-31T09:09:06;95249.28;;;27.21;61.73
69570;BME280;56781;42.292;23.146;2023-07-31T09:11:34;95244.25;;;26.17;63.41
69570;BME280;56781;42.292;23.146;2023-07-31T09:14:02;95242.06;;;25.97;65.16
69570;BME280;56781;42.292;23.146;2023-07-31T09:16:35;95257.91;;;25.79;64.43
69570;BME280;56781;42.292;23.146;2023-07-31T09:19:02;95256.50;;;27.08;71.41
69570;BME280;56781;42.292;23.146;2023-07-31T09:21:31;95250.44;;;27.74;65.63
69570;BME280;56781;42.292;23.146;2023-07-31T09:23:58;95253.47;;;28.07;60.45
69570;BME280;56781;42.292;23.146;2023-07-31T09:26:35;95239.22;;;28.12;56.00
69570;BME280;56781;42.292;23.146;2023-07-31T09:29:07;95242.09;;;27.81;57.94
69570;BME280;56781;42.292;23.146;2023-07-31T09:31:45;95234.00;;;27.94;57.02
69570;BME280;56781;42.292;23.146;2023-07-31T09:34:12;95232.00;;;28.18;58.22
69570;BME280;56781;42.292;23.146;2023-07-31T09:36:45;95246.19;;;27.15;56.85
69570;BME280;56781;42.292;23.146;2023-07-31T09:39:14;95233.53;;;26.64;65.65
69570;BME280;56781;42.292;23.146;2023-07-31T09:41:44;95228.56;;;26.14;62.15
69570;BME280;56781;42.292;23.146;2023-07-31T09:44:13;95228.81;;;25.89;64.46
69570;BME280;56781;42.292;23.146;2023-07-31T09:46:40;95232.91;;;25.66;66.06
69570;BME280;56781;42.292;23.146;2023-07-31T09:49:09;95230.47;;;25.27;70.84
69570;BME280;56781;42.292;23.146;2023-07-31T09:51:39;95235.25;;;25.15;70.70
69570;BME280;56781;42.292;23.146;2023-07-31T09:54:13;95243.03;;;25.13;66.86
69570;BME280;56781;42.292;23.146;2023-07-31T09:56:45;95225.47;;;25.07;64.30
69570;BME280;56781;42.292;23.146;2023-07-31T09:59:18;95223.38;;;25.36;66.67
69570;BME280;56781;42.292;23.146;2023-07-31T10:01:50;95224.75;;;25.59;62.66
69570;BME280;56781;42.292;23.146;2023-07-31T10:04:24;95209.69;;;25.78;61.99
69570;BME280;56781;42.292;23.146;2023-07-31T10:06:54;95215.75;;;26.03;65.86
69570;BME280;56781;42.292;23.146;2023-07-31T10:09:24;95226.06;;;25.92;58.65
69570;BME280;56781;42.292;23.146;2023-07-31T10:12:00;95219.50;;;25.79;67.33
69570;BME280;56781;42.292;23.146;2023-07-31T10:14:28;95209.00;;;25.14;61.58
69570;BME280;56781;42.292;23.146;2023-07-31T10:16:57;95204.38;;;25.04;65.50
69570;BME280;56781;42.292;23.146;2023-07-31T10:19:26;95222.75;;;25.11;67.24
69570;BME280;56781;42.292;23.146;2023-07-31T10:21:54;95220.72;;;25.22;66.62
69570;BME280;56781;42.292;23.146;2023-07-31T10:24:24;95214.25;;;25.50;65.31
69570;BME280;56781;42.292;23.146;2023-07-31T10:26:52;95205.47;;;25.70;64.99
69570;BME280;56781;42.292;23.146;2023-07-31T10:29:21;95194.53;;;25.66;65.98
69570;BME280;56781;42.292;23.146;2023-07-31T10:31:49;95212.91;;;25.69;66.61
69570;BME280;56781;42.292;23.146;2023-07-31T10:34:17;95221.13;;;25.69;61.42
69570;BME280;56781;42.292;23.146;2023-07-31T10:36:45;95224.44;;;25.50;63.27
69570;BME280;56781;42.292;23.146;2023-07-31T10:39:35;95222.16;;;25.37;66.76
69570;BME280;56781;42.292;23.146;2023-07-31T10:42:12;95200.97;;;25.45;66.42
69570;BME280;56781;42.292;23.146;2023-07-31T10:44:49;95202.94;;;25.45;64.43
69570;BME280;56781;42.292;23.146;2023-07-31T10:47:17;95183.72;;;25.48;66.27
69570;BME280;56781;42.292;23.146;2023-07-31T10:49:45;95187.66;;;26.26;68.39
69570;BME280;56781;42.292;23.146;2023-07-31T10:52:13;95181.47;;;26.19;60.76
69570;BME280;56781;42.292;23.146;2023-07-31T10:54:46;95188.94;;;26.18;62.03
69570;BME280;56781;42.292;23.146;2023-07-31T10:57:20;95170.94;;;26.48;58.15
69570;BME280;56781;42.292;23.146;2023-07-31T10:59:49;95184.75;;;26.06;58.30
69570;BME280;56781;42.292;23.146;2023-07-31T11:02:26;95177.78;;;26.67;60.57
69570;BME280;56781;42.292;23.146;2023-07-31T11:05:06;95162.97;;;27.15;60.97
69570;BME280;56781;42.292;23.146;2023-07-31T11:07:50;95179.88;;;27.40;59.63
69570;BME280;56781;42.292;23.146;2023-07-31T11:10:18;95175.88;;;27.45;61.61
69570;BME280;56781;42.292;23.146;2023-07-31T11:12:46;95170.84;;;27.13;57.71
69570;BME280;56781;42.292;23.146;2023-07-31T11:15:14;95163.44;;;27.10;54.00
69570;BME280;56781;42.292;23.146;2023-07-31T11:17:42;95161.31;;;26.67;58.34
69570;BME280;56781;42.292;23.146;2023-07-31T11:20:10;95167.72;;;26.87;60.86
69570;BME280;56781;42.292;23.146;2023-07-31T11:22:38;95168.25;;;26.75;59.03
69570;BME280;56781;42.292;23.146;2023-07-31T11:25:06;95171.03;;;26.41;59.51
69570;BME280;56781;42.292;23.146;2023-07-31T11:27:39;95154.50;;;26.14;59.13
69570;BME280;56781;42.292;23.146;2023-07-31T11:30:11;95159.16;;;26.51;55.50
69570;BME280;56781;42.292;23.146;2023-07-31T11:32:38;95156.88;;;27.04;55.91
69570;BME280;56781;42.292;23.146;2023-07-31T11:35:06;95154.53;;;27.53;56.71
69570;BME280;56781;42.292;23.146;2023-07-31T11:37:44;95128.28;;;27.72;56.85
69570;BME280;56781;42.292;23.146;2023-07-31T11:40:12;95134.91;;;27.74;53.63
69570;BME280;56781;42.292;23.146;2023-07-31T11:42:40;95158.19;;;27.93;53.35
69570;BME280;56781;42.292;23.146;2023-07-31T11:45:08;95136.88;;;27.74;52.97
69570;BME280;56781;42.292;23.146;2023-07-31T11:47:37;95120.72;;;27.05;51.06
69570;BME280;56781;42.292;23.146;2023-07-31T11:50:10;95135.31;;;26.75;54.66
69570;BME280;56781;42.292;23.146;2023-07-31T11:52:41;95124.41;;;27.22;55.49
69570;BME280;56781;42.292;23.146;2023-07-31T11:55:11;95120.34;;;27.30;53.62
69570;BME280;56781;42.292;23.146;2023-07-31T11:57:40;95124.41;;;27.69;52.76
69570;BME280;56781;42.292;23.146;2023-07-31T12:00:10;95144.22;;;28.04;54.40
69570;BME280;56781;42.292;23.146;2023-07-31T12:02:41;95123.88;;;27.98;51.15
69570;BME280;56781;42.292;23.146;2023-07-31T12:05:13;95126.84;;;28.07;48.72
69570;BME280;56781;42.292;23.146;2023-07-31T12:07:49;95107.63;;;28.03;48.32
69570;BME280;56781;42.292;23.146;2023-07-31T12:10:28;95098.03;;;28.12;52.20
69570;BME280;56781;42.292;23.146;2023-07-31T12:12:59;95111.47;;;28.10;46.26
69570;BME280;56781;42.292;23.146;2023-07-31T12:15:38;95085.13;;;28.09;48.41
69570;BME280;56781;42.292;23.146;2023-07-31T12:18:08;95077.69;;;28.25;50.51
69570;BME280;56781;42.292;23.146;2023-07-31T12:20:41;95080.97;;;28.20;48.21
69570;BME280;56781;42.292;23.146;2023-07-31T12:23:21;95103.56;;;27.92;48.73
69570;BME280;56781;42.292;23.146;2023-07-31T12:26:02;95092.88;;;28.34;50.80
69570;BME280;56781;42.292;23.146;2023-07-31T12:28:30;95084.47;;;28.41;47.50
69570;BME280;56781;42.292;23.146;2023-07-31T12:31:01;95077.06;;;28.38;49.60
69570;BME280;56781;42.292;23.146;2023-07-31T12:33:36;95075.66;;;28.29;44.97
69570;BME280;56781;42.292;23.146;2023-07-31T12:36:12;95071.94;;;28.00;50.09
69570;BME280;56781;42.292;23.146;2023-07-31T12:38:40;95066.13;;;28.14;48.71
69570;BME280;56781;42.292;23.146;2023-07-31T12:41:08;95063.38;;;28.34;48.61
69570;BME280;56781;42.292;23.146;2023-07-31T12:43:36;95088.47;;;28.36;47.92
69570;BME280;56781;42.292;23.146;2023-07-31T12:46:04;95084.19;;;28.35;48.44
69570;BME280;56781;42.292;23.146;2023-07-31T12:48:32;95073.28;;;28.12;47.75
69570;BME280;56781;42.292;23.146;2023-07-31T12:50:59;95062.03;;;28.22;50.19
69570;BME280;56781;42.292;23.146;2023-07-31T12:53:26;95064.81;;;28.39;47.42
69570;BME280;56781;42.292;23.146;2023-07-31T12:55:57;95072.72;;;28.20;48.54